createdAt,value
2018-06-09T00:02:27.000Z,70.48
2018-06-09T00:04:57.549Z,69.78
2018-06-09T00:07:27.846Z,70.54
2018-06-09T00:09:58.205Z,69.45
2018-06-09T00:12:28.569Z,70.36
2018-06-09T00:14:59.319Z,71.09
2018-06-09T00:17:29.852Z,70.72
2018-06-09T00:20:00.207Z,70.48
2018-06-09T00:22:30.536Z,71.16
2018-06-09T00:25:00.932Z,72.27
2018-06-09T00:27:31.409Z,72.14
2018-06-09T00:30:01.742Z,71.77
2018-06-09T00:32:32.093Z,70.73
2018-06-09T00:35:02.499Z,70.31
2018-06-09T00:37:33.903Z,71.20
2018-06-09T00:40:04.237Z,70.76
2018-06-09T00:42:35.473Z,70.74
2018-06-09T00:45:05.894Z,70.85
2018-06-09T00:47:36.295Z,71.30
2018-06-09T00:50:06.372Z,70.75
2018-06-09T00:52:36.594Z,70.80
2018-06-09T00:55:07.892Z,71.25
2018-06-09T00:57:38.326Z,71.85
2018-06-09T01:00:08.759Z,71.34
2018-06-09T01:02:39.151Z,71.64
2018-06-09T01:05:09.395Z,71.60
2018-06-09T01:07:39.703Z,72.40
2018-06-09T01:10:10.076Z,72.61
2018-06-09T01:12:40.510Z,71.42
2018-06-09T01:15:10.910Z,71.68
2018-06-09T01:17:41.357Z,71.04
2018-06-09T01:20:12.188Z,71.83
2018-06-09T01:22:42.540Z,73.54
2018-06-09T01:25:12.894Z,73.52
2018-06-09T01:27:43.230Z,73.14
2018-06-09T01:30:13.522Z,73.92
2018-06-09T01:32:43.904Z,73.88
2018-06-09T01:35:14.311Z,74.61
2018-06-09T01:37:44.775Z,74.01
2018-06-09T01:40:15.145Z,74.52
2018-06-09T01:42:45.502Z,74.65
2018-06-09T01:45:15.818Z,75.07
2018-06-09T01:47:46.204Z,74.65
2018-06-09T01:50:16.267Z,73.80
2018-06-09T01:52:46.583Z,73.97
2018-06-09T01:55:16.895Z,74.13
2018-06-09T01:57:47.268Z,74.01
2018-06-09T02:00:17.644Z,73.80
2018-06-09T02:02:47.970Z,74.83
2018-06-09T02:05:18.304Z,74.67
2018-06-09T02:07:48.802Z,73.81
2018-06-09T02:10:19.312Z,74.38
2018-06-09T02:12:49.672Z,74.42
2018-06-09T02:15:19.953Z,74.72
2018-06-09T02:17:50.603Z,74.71
2018-06-09T02:20:21.003Z,74.26
2018-06-09T02:22:51.070Z,74.00
2018-06-09T02:25:21.432Z,73.23
2018-06-09T02:27:53.100Z,74.12
2018-06-09T02:30:23.630Z,74.69
2018-06-09T02:32:53.967Z,74.49
2018-06-09T02:35:24.388Z,74.79
2018-06-09T02:37:55.023Z,75.36
2018-06-09T02:40:25.444Z,75.28
2018-06-09T02:42:55.778Z,75.12
2018-06-09T02:45:26.152Z,76.31
2018-06-09T02:47:56.692Z,75.80
2018-06-09T02:50:27.058Z,75.93
2018-06-09T02:52:57.475Z,76.08
2018-06-09T02:55:27.808Z,76.09
2018-06-09T02:57:58.157Z,75.92
2018-06-09T03:00:28.487Z,75.70
2018-06-09T03:02:58.935Z,77.16
2018-06-09T03:05:29.274Z,77.34
2018-06-09T03:07:59.620Z,77.54
2018-06-09T03:10:29.925Z,76.89
2018-06-09T03:13:00.340Z,77.02
2018-06-09T03:15:30.370Z,75.68
2018-06-09T03:18:00.715Z,75.46
2018-06-09T03:20:34.426Z,76.46
2018-06-09T03:23:04.759Z,75.62
2018-06-09T03:25:35.073Z,75.89
2018-06-09T03:28:05.516Z,76.72
2018-06-09T03:30:35.832Z,76.24
2018-06-09T03:33:06.557Z,77.90
2018-06-09T03:35:36.896Z,76.95
2018-06-09T03:38:07.273Z,77.77
2018-06-09T03:40:37.638Z,77.89
2018-06-09T03:43:08.080Z,77.70
2018-06-09T03:45:38.431Z,77.76
2018-06-09T03:48:08.819Z,77.52
2018-06-09T03:50:39.346Z,76.88
2018-06-09T03:53:09.712Z,76.49
2018-06-09T03:55:40.004Z,76.67
2018-06-09T03:58:10.572Z,76.66
2018-06-09T04:00:40.913Z,76.91
2018-06-09T04:03:11.339Z,76.79
2018-06-09T04:05:41.847Z,77.71
2018-06-09T04:08:12.282Z,77.78
2018-06-09T04:10:42.593Z,76.92
2018-06-09T04:13:13.019Z,77.47
2018-06-09T04:15:43.430Z,76.68
2018-06-09T04:18:13.771Z,76.61
2018-06-09T04:20:44.121Z,76.34
2018-06-09T04:23:14.566Z,76.41
2018-06-09T04:25:44.976Z,76.61
2018-06-09T04:28:15.303Z,77.54
2018-06-09T04:30:45.656Z,76.34
2018-06-09T04:33:15.663Z,76.77
2018-06-09T04:35:45.912Z,76.05
2018-06-09T04:38:16.229Z,76.97
2018-06-09T04:40:46.549Z,77.28
2018-06-09T04:43:16.642Z,76.75
2018-06-09T04:45:46.934Z,76.58
2018-06-09T04:48:17.319Z,77.20
2018-06-09T04:50:47.717Z,77.30
2018-06-09T04:53:18.227Z,76.99
2018-06-09T04:55:48.592Z,76.92
2018-06-09T04:58:19.039Z,77.10
2018-06-09T05:00:49.542Z,76.41
2018-06-09T05:03:20.284Z,77.21
2018-06-09T05:05:50.624Z,76.34
2018-06-09T05:08:21.097Z,76.35
2018-06-09T05:10:51.457Z,76.60
2018-06-09T05:13:21.840Z,76.13
2018-06-09T05:15:52.306Z,76.48
2018-06-09T05:18:22.855Z,76.53
2018-06-09T05:20:53.274Z,75.43
2018-06-09T05:23:23.679Z,75.21
2018-06-09T05:25:54.081Z,74.77
2018-06-09T05:28:24.497Z,75.51
2018-06-09T05:31:01.896Z,74.90
2018-06-09T05:33:32.272Z,75.54
2018-06-09T05:36:02.601Z,74.91
2018-06-09T05:38:33.140Z,74.08
2018-06-09T05:41:03.555Z,74.59
2018-06-09T05:43:34.610Z,74.03
2018-06-09T05:46:04.994Z,73.99
2018-06-09T05:48:35.422Z,74.59
2018-06-09T05:51:05.773Z,73.43
2018-06-09T05:53:36.140Z,73.58
2018-06-09T05:56:06.234Z,72.59
2018-06-09T05:58:36.485Z,72.86
2018-06-09T06:01:06.924Z,72.39
2018-06-09T06:03:37.604Z,72.18
2018-06-09T06:06:07.973Z,71.62
2018-06-09T06:08:38.339Z,71.26
2018-06-09T06:11:08.726Z,71.63
2018-06-09T06:13:39.076Z,73.05
2018-06-09T06:16:09.473Z,72.01
2018-06-09T06:18:39.894Z,72.15
2018-06-09T06:21:10.343Z,71.53
2018-06-09T06:23:40.758Z,72.40
2018-06-09T06:26:11.200Z,71.36
2018-06-09T06:28:41.609Z,70.52
2018-06-09T06:31:11.993Z,70.51
2018-06-09T06:33:42.452Z,70.09
2018-06-09T06:36:12.805Z,70.69
2018-06-09T06:38:43.330Z,69.30
2018-06-09T06:41:13.787Z,70.13
2018-06-09T06:43:44.157Z,70.34
2018-06-09T06:46:14.779Z,70.36
2018-06-09T06:48:45.205Z,70.37
2018-06-09T06:51:15.556Z,70.75
2018-06-09T06:53:46.120Z,71.81
2018-06-09T06:56:16.890Z,71.07
2018-06-09T06:58:47.247Z,71.48
2018-06-09T07:01:17.637Z,71.01
2018-06-09T07:03:48.051Z,69.43
2018-06-09T07:06:18.497Z,70.25
2018-06-09T07:08:48.899Z,70.20
2018-06-09T07:11:19.248Z,70.08
2018-06-09T07:13:49.769Z,70.10
2018-06-09T07:16:20.195Z,71.21
2018-06-09T07:18:50.683Z,69.63
2018-06-09T07:21:21.192Z,69.84
2018-06-09T07:23:51.611Z,68.67
2018-06-09T07:26:22.775Z,70.09
2018-06-09T07:28:53.217Z,69.54
2018-06-09T07:31:23.600Z,66.10
2018-06-09T07:33:53.921Z,66.57
2018-06-09T07:36:24.397Z,68.13
2018-06-09T07:38:54.827Z,67.99
2018-06-09T07:41:25.041Z,68.24
2018-06-09T07:43:55.399Z,68.04
2018-06-09T07:46:25.845Z,67.23
2018-06-09T07:48:56.284Z,67.40
2018-06-09T07:51:26.888Z,66.53
2018-06-09T07:53:57.847Z,67.25
2018-06-09T07:56:28.208Z,67.17
2018-06-09T07:58:58.613Z,67.76
2018-06-09T08:01:28.704Z,67.26
2018-06-09T08:03:58.952Z,67.72
2018-06-09T08:06:29.340Z,66.91
2018-06-09T08:08:59.650Z,66.28
2018-06-09T08:11:30.074Z,65.45
2018-06-09T08:14:00.482Z,66.10
2018-06-09T08:16:30.857Z,65.49
2018-06-09T08:19:01.218Z,64.85
2018-06-09T08:21:31.825Z,63.13
2018-06-09T08:24:02.212Z,63.74
2018-06-09T08:26:32.603Z,64.08
2018-06-09T08:29:03.003Z,64.78
2018-06-09T08:31:33.386Z,64.16
2018-06-09T08:34:03.810Z,64.73
2018-06-09T08:36:35.222Z,64.29
2018-06-09T08:39:07.327Z,64.46
2018-06-09T08:41:37.745Z,64.95
2018-06-09T08:44:08.144Z,62.90
2018-06-09T08:46:38.540Z,63.12
2018-06-09T08:49:08.951Z,63.93
2018-06-09T08:51:39.607Z,62.73
2018-06-09T08:54:09.779Z,62.48
2018-06-09T08:56:40.104Z,62.76
2018-06-09T08:59:10.497Z,62.06
2018-06-09T09:01:41.027Z,61.93
2018-06-09T09:04:11.415Z,62.23
2018-06-09T09:06:41.788Z,62.14
2018-06-09T09:09:12.168Z,61.40
2018-06-09T09:11:42.292Z,60.96
2018-06-09T09:14:12.601Z,60.99
2018-06-09T09:16:43.136Z,60.70
2018-06-09T09:19:13.596Z,61.40
2018-06-09T09:21:44.117Z,61.92
2018-06-09T09:24:14.575Z,60.79
2018-06-09T09:26:45.065Z,59.96
2018-06-09T09:29:15.063Z,60.29
2018-06-09T09:31:45.610Z,59.36
2018-06-09T09:34:15.917Z,59.13
2018-06-09T09:36:45.996Z,59.08
2018-06-09T09:39:16.379Z,59.20
2018-06-09T09:41:46.736Z,58.55
2018-06-09T09:44:17.247Z,58.31
2018-06-09T09:46:47.757Z,58.73
2018-06-09T09:49:18.108Z,60.51
2018-06-09T09:51:48.559Z,58.50
2018-06-09T09:54:19.072Z,58.88
2018-06-09T09:56:49.448Z,58.44
2018-06-09T09:59:19.881Z,57.84
2018-06-09T10:01:50.411Z,59.38
2018-06-09T10:04:20.638Z,58.47
2018-06-09T10:06:50.956Z,58.33
2018-06-09T10:09:21.049Z,57.71
2018-06-09T10:11:51.338Z,56.64
2018-06-09T10:14:21.784Z,58.26
2018-06-09T10:16:52.245Z,56.49
2018-06-09T10:19:22.623Z,56.60
2018-06-09T10:21:53.008Z,57.59
2018-06-09T10:24:23.546Z,57.57
2018-06-09T10:26:53.945Z,58.29
2018-06-09T10:29:24.366Z,58.25
2018-06-09T10:31:54.752Z,56.90
2018-06-09T10:34:25.172Z,57.01
2018-06-09T10:36:55.774Z,55.91
2018-06-09T10:39:26.153Z,55.76
2018-06-09T10:41:56.531Z,56.15
2018-06-09T10:44:26.890Z,55.83
2018-06-09T10:46:57.321Z,55.67
2018-06-09T10:49:27.725Z,54.22
2018-06-09T10:51:58.237Z,54.75
2018-06-09T10:54:28.620Z,53.59
2018-06-09T10:56:59.088Z,54.89
2018-06-09T10:59:29.597Z,53.06
2018-06-09T11:02:00.045Z,52.38
2018-06-09T11:04:30.461Z,52.63
2018-06-09T11:07:00.880Z,52.09
2018-06-09T11:09:31.201Z,52.85
2018-06-09T11:12:01.754Z,53.71
2018-06-09T11:14:32.120Z,52.41
2018-06-09T11:17:02.468Z,51.55
2018-06-09T11:19:32.828Z,51.85
2018-06-09T11:22:02.918Z,52.76
2018-06-09T11:24:33.409Z,53.80
2018-06-09T11:27:03.891Z,54.08
2018-06-09T11:29:35.551Z,52.63
2018-06-09T11:32:05.859Z,53.15
2018-06-09T11:34:36.240Z,51.51
2018-06-09T11:37:06.661Z,52.83
2018-06-09T11:39:37.028Z,53.18
2018-06-09T11:42:07.528Z,52.80
2018-06-09T11:44:37.878Z,51.30
2018-06-09T11:47:08.367Z,51.79
2018-06-09T11:49:38.475Z,50.70
2018-06-09T11:52:08.764Z,50.39
2018-06-09T11:54:39.151Z,51.67
2018-06-09T11:57:09.614Z,50.58
2018-06-09T11:59:40.065Z,50.46
2018-06-09T12:02:10.656Z,49.61
2018-06-09T12:04:41.036Z,50.56
2018-06-09T12:07:11.381Z,52.27
2018-06-09T12:09:41.755Z,50.13
2018-06-09T12:12:12.172Z,50.16
2018-06-09T12:14:42.555Z,49.12
2018-06-09T12:17:12.949Z,48.53
2018-06-09T12:19:43.112Z,47.87
2018-06-09T12:22:13.537Z,47.11
2018-06-09T12:24:44.014Z,47.54
2018-06-09T12:27:14.452Z,47.30
2018-06-09T12:29:44.878Z,47.15
2018-06-09T12:32:15.489Z,49.24
2018-06-09T12:34:46.066Z,48.44
2018-06-09T12:37:16.517Z,47.48
2018-06-09T12:39:46.982Z,46.36
2018-06-09T12:42:17.387Z,46.70
2018-06-09T12:44:47.805Z,45.22
2018-06-09T12:47:18.163Z,47.18
2018-06-09T12:49:48.666Z,45.85
2018-06-09T12:52:19.085Z,46.52
2018-06-09T12:54:49.246Z,45.57
2018-06-09T12:57:19.679Z,44.79
2018-06-09T12:59:50.133Z,45.36
2018-06-09T13:02:20.803Z,44.69
2018-06-09T13:04:51.232Z,45.16
2018-06-09T13:07:21.717Z,45.76
2018-06-09T13:09:52.113Z,46.82
2018-06-09T13:12:22.638Z,48.80
2018-06-09T13:14:53.101Z,49.03
2018-06-09T13:17:23.552Z,48.74
2018-06-09T13:19:53.942Z,49.13
2018-06-09T13:22:24.341Z,49.80
2018-06-09T13:24:54.825Z,48.10
2018-06-09T13:27:24.930Z,50.31
2018-06-09T13:29:55.299Z,49.34
2018-06-09T13:32:25.675Z,49.34
2018-06-09T13:34:56.289Z,49.76
2018-06-09T13:37:26.729Z,49.51
2018-06-09T13:39:57.156Z,50.18
2018-06-09T13:42:27.521Z,50.36
2018-06-09T13:44:57.951Z,50.05
2018-06-09T13:47:28.287Z,50.29
2018-06-09T13:49:58.776Z,50.02
2018-06-09T13:52:29.226Z,50.79
2018-06-09T13:54:59.620Z,49.40
2018-06-09T13:57:30.187Z,50.34
2018-06-09T14:00:00.673Z,50.86
2018-06-09T14:02:31.210Z,50.50
2018-06-09T14:05:01.572Z,50.09
2018-06-09T14:07:32.101Z,50.18
2018-06-09T14:10:02.496Z,49.73
2018-06-09T14:12:32.919Z,50.17
2018-06-09T14:15:03.368Z,50.09
2018-06-09T14:17:33.754Z,49.67
2018-06-09T14:20:04.187Z,49.60
2018-06-09T14:22:38.779Z,49.07
2018-06-09T14:25:09.245Z,48.05
2018-06-09T14:27:39.658Z,47.97
2018-06-09T14:30:10.160Z,47.22
2018-06-09T14:32:40.698Z,48.41
2018-06-09T14:35:11.080Z,47.58
2018-06-09T14:37:41.502Z,48.83
2018-06-09T14:40:11.979Z,48.97
2018-06-09T14:42:43.104Z,49.74
2018-06-09T14:45:13.558Z,51.36
2018-06-09T14:47:44.013Z,51.90
2018-06-09T14:50:14.499Z,53.24
2018-06-09T14:52:45.072Z,54.73
2018-06-09T14:55:15.661Z,55.83
2018-06-09T14:57:46.188Z,56.12
2018-06-09T15:00:16.544Z,55.49
2018-06-09T15:02:46.982Z,55.74
2018-06-09T15:05:17.348Z,55.66
2018-06-09T15:07:47.576Z,55.62
2018-06-09T15:10:18.078Z,54.90
2018-06-09T15:12:48.644Z,54.91
2018-06-09T15:15:19.081Z,54.31
2018-06-09T15:17:49.582Z,55.28
2018-06-09T15:20:20.039Z,54.47
2018-06-09T15:22:50.495Z,54.97
2018-06-09T15:25:20.996Z,53.54
2018-06-09T15:27:51.356Z,54.41
2018-06-09T15:30:21.864Z,54.53
2018-06-09T15:32:52.289Z,53.79
2018-06-09T15:35:22.646Z,54.25
2018-06-09T15:37:53.000Z,54.06
2018-06-09T15:40:23.358Z,54.03
2018-06-09T15:42:53.702Z,54.32
2018-06-09T15:45:24.210Z,54.42
2018-06-09T15:47:54.604Z,55.33
2018-06-09T15:50:25.257Z,55.88
2018-06-09T15:52:55.741Z,55.62
2018-06-09T15:55:26.098Z,55.58
2018-06-09T15:57:56.745Z,55.20
2018-06-09T16:00:27.196Z,55.65
2018-06-09T16:02:57.512Z,55.36
2018-06-09T16:05:27.998Z,55.48
2018-06-09T16:07:58.628Z,55.33
2018-06-09T16:10:29.042Z,55.31
2018-06-09T16:12:59.369Z,55.03
2018-06-09T16:15:29.816Z,55.16
2018-06-09T16:18:00.159Z,54.58
2018-06-09T16:20:30.499Z,54.58
2018-06-09T16:23:00.992Z,55.22
2018-06-09T16:25:31.517Z,54.79
2018-06-09T16:28:01.871Z,53.85
2018-06-09T16:30:32.192Z,54.13
2018-06-09T16:33:02.648Z,54.79
2018-06-09T16:35:33.051Z,55.81
2018-06-09T16:38:03.546Z,56.71
2018-06-09T16:40:33.948Z,58.13
2018-06-09T16:43:04.361Z,57.65
2018-06-09T16:45:35.999Z,58.23
2018-06-09T16:48:06.495Z,59.00
2018-06-09T16:50:37.078Z,59.85
2018-06-09T16:53:07.500Z,60.42
2018-06-09T16:55:37.881Z,59.90
2018-06-09T16:58:08.384Z,60.02
2018-06-09T17:00:38.820Z,58.65
2018-06-09T17:03:09.229Z,59.41
2018-06-09T17:05:39.651Z,59.51
2018-06-09T17:08:10.080Z,59.84
2018-06-09T17:10:40.474Z,59.87
2018-06-09T17:13:10.810Z,60.27
2018-06-09T17:15:41.282Z,60.64
2018-06-09T17:18:11.704Z,60.98
2018-06-09T17:20:42.121Z,59.85
2018-06-09T17:23:12.527Z,59.53
2018-06-09T17:25:42.864Z,59.39
2018-06-09T17:28:13.231Z,58.90
2018-06-09T17:30:43.671Z,58.50
2018-06-09T17:33:14.028Z,58.01
2018-06-09T17:35:44.419Z,58.27
2018-06-09T17:38:14.813Z,58.91
2018-06-09T17:40:45.210Z,60.59
2018-06-09T17:43:15.554Z,62.46
2018-06-09T17:45:45.786Z,64.90
2018-06-09T17:48:16.430Z,64.93
2018-06-09T17:50:46.917Z,65.61
2018-06-09T17:53:17.457Z,66.64
2018-06-09T17:55:47.898Z,67.29
2018-06-09T17:58:18.274Z,67.65
2018-06-09T18:00:48.747Z,68.71
2018-06-09T18:03:19.156Z,69.37
2018-06-09T18:05:49.449Z,70.00
2018-06-09T18:08:19.950Z,70.20
2018-06-09T18:10:50.381Z,71.32
2018-06-09T18:13:20.840Z,71.71
2018-06-09T18:15:51.286Z,71.65
2018-06-09T18:18:21.718Z,72.19
2018-06-09T18:20:52.068Z,72.20
2018-06-09T18:23:22.487Z,72.60
2018-06-09T18:25:52.956Z,72.90
2018-06-09T18:28:23.409Z,73.09
2018-06-09T18:30:53.526Z,72.63
2018-06-09T18:33:23.944Z,72.52
2018-06-09T18:35:54.392Z,73.23
2018-06-09T18:38:24.741Z,71.93
2018-06-09T18:40:55.170Z,72.05
2018-06-09T18:43:25.656Z,72.32
2018-06-09T18:45:55.881Z,72.73
2018-06-09T18:48:26.216Z,72.76
2018-06-09T18:50:56.742Z,73.66
2018-06-09T18:53:27.133Z,73.14
2018-06-09T18:55:57.660Z,73.86
2018-06-09T18:58:28.060Z,73.77
2018-06-09T19:00:58.533Z,73.73
2018-06-09T19:03:29.167Z,72.30
2018-06-09T19:05:59.761Z,72.78
2018-06-09T19:08:30.221Z,72.05
2018-06-09T19:11:00.660Z,71.47
2018-06-09T19:13:31.166Z,71.37
2018-06-09T19:16:01.842Z,71.19
2018-06-09T19:18:32.351Z,71.41
2018-06-09T19:21:02.794Z,71.27
2018-06-09T19:23:33.335Z,70.86
2018-06-09T19:26:03.871Z,71.17
2018-06-09T19:28:34.388Z,71.97
2018-06-09T19:31:04.839Z,70.83
2018-06-09T19:33:36.448Z,70.60
2018-06-09T19:36:07.311Z,70.78
2018-06-09T19:38:37.739Z,70.40
2018-06-09T19:41:08.201Z,71.16
2018-06-09T19:43:38.593Z,71.28
2018-06-09T19:46:08.986Z,71.96
2018-06-09T19:48:39.491Z,71.21
2018-06-09T19:51:09.673Z,71.89
2018-06-09T19:53:40.144Z,71.55
2018-06-09T19:56:10.735Z,70.24
2018-06-09T19:58:41.236Z,70.42
2018-06-09T20:01:11.594Z,69.73
2018-06-09T20:03:41.816Z,70.44
2018-06-09T20:06:12.418Z,70.64
2018-06-09T20:08:42.972Z,70.51
2018-06-09T20:11:13.429Z,71.81
2018-06-09T20:13:43.841Z,71.51
2018-06-09T20:16:14.225Z,70.65
2018-06-09T20:18:44.691Z,71.06
2018-06-09T20:21:15.112Z,71.42
2018-06-09T20:23:45.518Z,71.69
2018-06-09T20:26:16.045Z,72.21
2018-06-09T20:28:46.546Z,70.96
2018-06-09T20:31:17.077Z,71.73
2018-06-09T20:33:47.500Z,71.31
2018-06-09T20:36:17.949Z,72.39
2018-06-09T20:38:48.088Z,72.87
2018-06-09T20:41:18.445Z,73.57
2018-06-09T20:43:49.053Z,73.16
2018-06-09T20:46:19.150Z,73.84
2018-06-09T20:48:49.484Z,73.85
2018-06-09T20:51:20.052Z,72.66
2018-06-09T20:53:50.592Z,73.50
2018-06-09T20:56:20.985Z,73.05
2018-06-09T20:58:51.522Z,73.89
2018-06-09T21:01:21.941Z,73.64
2018-06-09T21:03:52.347Z,74.12
2018-06-09T21:06:22.716Z,74.43
2018-06-09T21:08:53.208Z,75.21
2018-06-09T21:11:23.643Z,75.37
2018-06-09T21:13:54.007Z,75.37
2018-06-09T21:16:24.366Z,75.02
2018-06-09T21:19:00.105Z,74.85
2018-06-09T21:21:34.372Z,75.97
2018-06-09T21:24:10.054Z,75.33
2018-06-09T21:26:50.289Z,75.69
2018-06-09T21:29:29.837Z,75.95
2018-06-09T21:38:00.090Z,76.03
2018-06-09T21:40:40.855Z,76.58
2018-06-09T21:46:32.906Z,77.00
2018-06-09T21:49:08.818Z,77.42
2018-06-09T21:51:47.528Z,77.21
2018-06-09T21:55:07.187Z,77.06
2018-06-09T21:57:43.878Z,77.02
2018-06-09T22:00:28.509Z,77.02
2018-06-09T22:03:10.951Z,76.93
2018-06-09T22:08:37.562Z,77.15
2018-06-09T22:11:12.109Z,77.28
2018-06-09T22:13:49.072Z,77.57
2018-06-09T22:16:30.915Z,77.37
2018-06-09T22:19:55.044Z,76.88
2018-06-09T22:22:33.903Z,76.65
2018-06-09T22:25:48.425Z,76.50
2018-06-09T22:28:23.311Z,75.72
2018-06-09T22:31:12.379Z,75.75
2018-06-09T22:34:07.145Z,76.69
2018-06-09T22:36:45.569Z,76.38
2018-06-09T22:44:29.984Z,76.23
2018-06-09T22:47:00.859Z,76.08
2018-06-09T22:49:32.758Z,76.04
2018-06-09T22:52:03.622Z,75.01
2018-06-09T22:54:34.436Z,74.53
2018-06-09T22:57:05.247Z,73.74
2018-06-09T22:59:37.277Z,74.03
2018-06-09T23:02:09.072Z,73.30
2018-06-09T23:04:39.893Z,73.57
2018-06-09T23:07:11.734Z,74.21
2018-06-09T23:09:43.106Z,74.16
2018-06-09T23:12:13.942Z,73.65
2018-06-09T23:14:44.783Z,74.03
2018-06-09T23:17:15.591Z,73.64
2018-06-09T23:19:46.397Z,74.12
2018-06-09T23:22:17.359Z,74.42
2018-06-09T23:24:48.442Z,74.45
2018-06-09T23:27:19.335Z,74.38
2018-06-09T23:29:50.151Z,74.34
2018-06-09T23:32:20.972Z,73.78
2018-06-09T23:34:51.753Z,74.78
2018-06-09T23:37:22.506Z,74.01
2018-06-09T23:39:53.255Z,74.05
2018-06-09T23:42:24.406Z,73.58
2018-06-09T23:44:55.816Z,73.24
2018-06-09T23:47:26.794Z,73.16
2018-06-09T23:49:57.909Z,73.45
2018-06-09T23:52:29.041Z,73.40
2018-06-09T23:55:00.075Z,73.07
2018-06-09T23:57:32.811Z,73.11
